createdAt,value
2019-03-16T00:00:23.525Z,52.70
2019-03-16T00:02:56.382Z,51.73
2019-03-16T00:05:28.993Z,53.33
2019-03-16T00:08:01.926Z,57.55
2019-03-16T00:10:34.734Z,60.70
2019-03-16T00:13:07.310Z,54.83
2019-03-16T00:15:40.013Z,52.43
2019-03-16T00:18:12.639Z,50.40
2019-03-16T00:20:45.260Z,46.58
2019-03-16T00:23:17.672Z,51.18
2019-03-16T00:25:50.080Z,55.48
2019-03-16T00:28:22.585Z,49.40
2019-03-16T00:30:55.839Z,54.27
2019-03-16T00:33:28.682Z,60.30
2019-03-16T00:36:01.252Z,59.10
2019-03-16T00:38:33.957Z,53.90
2019-03-16T00:41:06.501Z,50.55
2019-03-16T00:43:39.398Z,45.45
2019-03-16T00:46:11.713Z,57.00
2019-03-16T00:48:44.164Z,44.23
2019-03-16T00:51:16.585Z,43.73
2019-03-16T00:53:49.190Z,44.15
2019-03-16T00:56:21.678Z,41.95
2019-03-16T00:58:54.086Z,44.05
2019-03-16T01:01:26.420Z,44.23
2019-03-16T01:03:59.406Z,40.85
2019-03-16T01:06:31.894Z,39.75
2019-03-16T01:09:05.499Z,39.73
2019-03-16T01:11:37.884Z,37.00
2019-03-16T01:14:11.673Z,39.35
2019-03-16T01:16:44.268Z,36.48
2019-03-16T01:19:16.958Z,36.00
2019-03-16T01:21:49.354Z,37.42
2019-03-16T01:24:21.816Z,38.25
2019-03-16T01:26:54.208Z,37.80
2019-03-16T01:29:26.861Z,38.23
2019-03-16T01:31:59.276Z,37.05
2019-03-16T01:34:31.875Z,36.10
2019-03-16T01:37:04.511Z,36.75
2019-03-16T01:39:37.327Z,36.17
2019-03-16T01:42:09.682Z,37.45
2019-03-16T01:44:42.368Z,36.98
2019-03-16T01:47:14.944Z,33.83
2019-03-16T01:49:47.393Z,36.53
2019-03-16T01:52:19.955Z,37.63
2019-03-16T01:54:53.378Z,34.78
2019-03-16T01:57:25.922Z,36.60
2019-03-16T01:59:58.636Z,35.60
2019-03-16T02:02:31.204Z,39.90
2019-03-16T02:05:04.088Z,33.80
2019-03-16T02:07:36.480Z,30.23
2019-03-16T02:10:10.784Z,33.75
2019-03-16T02:12:43.217Z,32.33
2019-03-16T02:15:15.799Z,29.80
2019-03-16T02:17:48.478Z,31.85
2019-03-16T02:20:21.062Z,31.52
2019-03-16T02:22:53.805Z,35.38
2019-03-16T02:25:27.570Z,35.70
2019-03-16T02:28:00.649Z,32.70
2019-03-16T02:30:33.076Z,36.23
2019-03-16T02:33:13.414Z,31.45
2019-03-16T02:35:39.959Z,33.88
2019-03-16T02:38:12.725Z,32.42
2019-03-16T02:40:45.316Z,33.25
2019-03-16T02:43:18.872Z,29.02
2019-03-16T02:45:51.311Z,30.50
2019-03-16T02:48:23.864Z,31.68
2019-03-16T02:50:56.732Z,25.25
2019-03-16T02:53:29.241Z,29.05
2019-03-16T02:56:02.033Z,26.17
2019-03-16T02:58:34.449Z,29.37
2019-03-16T03:01:07.409Z,24.72
2019-03-16T03:03:40.060Z,24.98
2019-03-16T03:06:12.507Z,26.75
2019-03-16T03:08:45.248Z,27.52
2019-03-16T03:11:17.765Z,25.40
2019-03-16T03:13:50.489Z,26.60
2019-03-16T03:16:22.804Z,29.42
2019-03-16T03:18:55.370Z,31.25
2019-03-16T03:21:27.829Z,25.80
2019-03-16T03:24:00.458Z,27.25
2019-03-16T03:26:33.330Z,23.77
2019-03-16T03:29:05.644Z,28.25
2019-03-16T03:31:38.355Z,25.72
2019-03-16T03:34:10.958Z,26.25
2019-03-16T03:36:43.715Z,26.87
2019-03-16T03:39:16.084Z,28.35
2019-03-16T03:41:48.594Z,21.45
2019-03-16T03:44:21.016Z,24.50
2019-03-16T03:46:54.289Z,24.92
2019-03-16T03:49:26.811Z,24.65
2019-03-16T03:51:59.417Z,24.67
2019-03-16T03:54:32.297Z,27.32
2019-03-16T03:57:04.795Z,24.07
2019-03-16T03:59:37.374Z,23.10
2019-03-16T04:02:10.145Z,24.12
2019-03-16T04:04:43.570Z,25.50
2019-03-16T04:07:19.801Z,30.15
2019-03-16T04:09:52.162Z,26.52
2019-03-16T04:12:24.637Z,25.88
2019-03-16T04:14:57.002Z,25.90
2019-03-16T04:17:29.744Z,23.32
2019-03-16T04:20:02.179Z,24.70
2019-03-16T04:22:34.812Z,23.38
2019-03-16T04:25:07.401Z,24.12
2019-03-16T04:27:39.978Z,26.45
2019-03-16T04:30:14.113Z,24.60
2019-03-16T04:32:46.658Z,22.73
2019-03-16T04:35:18.998Z,23.40
2019-03-16T04:37:52.910Z,27.00
2019-03-16T04:40:25.216Z,26.42
2019-03-16T04:42:58.043Z,26.40
2019-03-16T04:45:30.370Z,25.88
2019-03-16T04:48:03.119Z,28.98
2019-03-16T04:50:35.394Z,28.02
2019-03-16T04:53:08.122Z,29.52
2019-03-16T04:55:40.620Z,28.90
2019-03-16T04:58:14.306Z,25.45
2019-03-16T05:00:46.871Z,28.40
2019-03-16T05:03:19.838Z,27.15
2019-03-16T05:05:52.561Z,28.42
2019-03-16T05:08:25.558Z,29.80
2019-03-16T05:10:58.196Z,27.25
2019-03-16T05:13:31.111Z,28.47
2019-03-16T05:16:03.635Z,30.35
2019-03-16T05:18:36.562Z,27.67
2019-03-16T05:21:09.061Z,27.80
2019-03-16T05:23:41.534Z,28.87
2019-03-16T05:26:13.953Z,28.57
2019-03-16T05:28:46.384Z,27.05
2019-03-16T05:31:18.704Z,27.40
2019-03-16T05:33:51.119Z,35.63
2019-03-16T05:36:23.656Z,32.88
2019-03-16T05:38:56.194Z,33.33
2019-03-16T05:41:28.671Z,29.02
2019-03-16T05:44:01.423Z,34.65
2019-03-16T05:46:34.009Z,30.77
2019-03-16T05:49:06.679Z,34.98
2019-03-16T05:51:39.810Z,35.03
2019-03-16T05:54:12.511Z,40.58
2019-03-16T05:56:45.334Z,32.13
2019-03-16T05:59:17.705Z,35.65
2019-03-16T06:01:50.455Z,36.17
2019-03-16T06:04:22.936Z,33.45
2019-03-16T06:06:55.356Z,34.13
2019-03-16T06:09:27.766Z,33.70
2019-03-16T06:12:00.076Z,32.20
2019-03-16T06:14:32.906Z,31.30
2019-03-16T06:17:05.407Z,31.60
2019-03-16T06:19:37.682Z,35.30
2019-03-16T06:22:10.075Z,30.85
2019-03-16T06:24:42.744Z,35.92
2019-03-16T06:27:15.242Z,36.05
2019-03-16T06:29:47.822Z,33.45
2019-03-16T06:32:21.437Z,29.95
2019-03-16T06:34:54.075Z,31.80
2019-03-16T06:37:26.466Z,36.60
2019-03-16T06:39:59.426Z,35.05
2019-03-16T06:42:31.870Z,32.85
2019-03-16T06:45:04.471Z,32.08
2019-03-16T06:47:36.843Z,33.65
2019-03-16T06:50:11.638Z,32.83
2019-03-16T06:52:44.160Z,33.00
2019-03-16T06:55:16.920Z,33.83
2019-03-16T06:57:50.141Z,31.87
2019-03-16T07:00:22.660Z,33.23
2019-03-16T07:02:55.190Z,32.28
2019-03-16T07:05:37.720Z,32.93
2019-03-16T07:08:01.615Z,33.35
2019-03-16T07:10:35.298Z,35.40
2019-03-16T07:13:08.264Z,32.42
2019-03-16T07:15:40.627Z,31.80
2019-03-16T07:18:13.445Z,32.20
2019-03-16T07:20:46.163Z,32.70
2019-03-16T07:23:18.732Z,34.00
2019-03-16T07:25:51.244Z,30.85
2019-03-16T07:28:24.185Z,32.70
2019-03-16T07:30:57.656Z,34.75
2019-03-16T07:33:30.075Z,32.83
2019-03-16T07:36:02.722Z,33.67
2019-03-16T07:38:35.423Z,33.20
2019-03-16T07:41:07.966Z,31.95
2019-03-16T07:43:41.371Z,33.33
2019-03-16T07:46:13.947Z,31.75
2019-03-16T07:48:46.891Z,32.38
2019-03-16T07:51:19.295Z,33.75
2019-03-16T07:53:52.017Z,37.65
2019-03-16T07:56:24.499Z,34.80
2019-03-16T07:58:57.135Z,37.10
2019-03-16T08:01:29.462Z,36.50
2019-03-16T08:04:02.287Z,36.58
2019-03-16T08:06:34.725Z,35.10
2019-03-16T08:09:08.605Z,35.03
2019-03-16T08:11:41.070Z,33.80
2019-03-16T08:14:13.520Z,34.58
2019-03-16T08:16:45.847Z,32.88
2019-03-16T08:19:18.345Z,34.55
2019-03-16T08:21:50.722Z,34.45
2019-03-16T08:24:23.362Z,33.85
2019-03-16T08:26:55.833Z,33.95
2019-03-16T08:29:28.449Z,33.67
2019-03-16T08:32:00.841Z,35.60
2019-03-16T08:34:33.591Z,33.53
2019-03-16T08:37:06.253Z,34.88
2019-03-16T08:39:38.804Z,37.42
2019-03-16T08:42:12.338Z,39.27
2019-03-16T08:44:45.140Z,37.00
2019-03-16T08:47:17.743Z,39.15
2019-03-16T08:49:50.601Z,34.53
2019-03-16T08:52:22.900Z,35.58
2019-03-16T08:54:55.336Z,33.80
2019-03-16T08:57:27.783Z,34.70
2019-03-16T09:00:00.330Z,35.90
2019-03-16T09:02:33.000Z,35.28
2019-03-16T09:05:06.005Z,36.77
2019-03-16T09:07:38.489Z,34.65
2019-03-16T09:10:11.992Z,37.15
2019-03-16T09:12:54.267Z,38.73
2019-03-16T09:15:19.178Z,35.90
2019-03-16T09:17:52.067Z,37.95
2019-03-16T09:20:24.740Z,37.95
2019-03-16T09:22:57.582Z,38.85
2019-03-16T09:25:30.099Z,39.20
2019-03-16T09:28:02.836Z,38.23
2019-03-16T09:30:35.551Z,40.80
2019-03-16T09:33:08.254Z,41.73
2019-03-16T09:35:40.760Z,39.08
2019-03-16T09:38:13.520Z,39.98
2019-03-16T09:40:46.448Z,39.27
2019-03-16T09:43:20.079Z,38.23
2019-03-16T09:45:52.392Z,40.38
2019-03-16T09:48:25.128Z,38.73
2019-03-16T09:50:57.629Z,39.65
2019-03-16T09:53:30.150Z,40.17
2019-03-16T09:56:02.603Z,40.03
2019-03-16T09:58:36.143Z,37.70
2019-03-16T10:01:09.041Z,38.98
2019-03-16T10:03:41.655Z,43.73
2019-03-16T10:06:14.587Z,41.18
2019-03-16T10:08:47.351Z,42.15
2019-03-16T10:11:20.114Z,41.85
2019-03-16T10:13:52.510Z,42.30
2019-03-16T10:16:25.257Z,39.70
2019-03-16T10:18:57.920Z,40.65
2019-03-16T10:21:30.700Z,41.92
2019-03-16T10:24:03.196Z,42.93
2019-03-16T10:26:37.562Z,45.12
2019-03-16T10:29:09.702Z,45.55
2019-03-16T10:31:41.962Z,46.37
2019-03-16T10:34:14.389Z,44.98
2019-03-16T10:36:46.616Z,46.73
2019-03-16T10:39:19.679Z,44.60
2019-03-16T10:41:52.516Z,44.40
2019-03-16T10:44:25.189Z,42.23
2019-03-16T10:46:57.859Z,41.28
2019-03-16T10:49:30.158Z,42.80
2019-03-16T10:52:02.652Z,43.25
2019-03-16T10:54:35.238Z,41.60
2019-03-16T10:57:08.247Z,41.63
2019-03-16T10:59:40.835Z,43.42
2019-03-16T11:02:13.886Z,44.08
2019-03-16T11:04:47.176Z,49.80
2019-03-16T11:07:19.817Z,44.40
2019-03-16T11:09:52.534Z,43.83
2019-03-16T11:12:25.355Z,43.75
2019-03-16T11:14:58.018Z,45.28
2019-03-16T11:17:30.551Z,47.83
2019-03-16T11:20:03.128Z,46.30
2019-03-16T11:22:35.342Z,49.90
2019-03-16T11:25:09.449Z,49.33
2019-03-16T11:27:42.161Z,50.35
2019-03-16T11:30:17.061Z,51.50
2019-03-16T11:32:49.912Z,52.45
2019-03-16T11:35:22.640Z,52.03
2019-03-16T11:37:55.643Z,49.60
2019-03-16T11:40:28.575Z,49.05
2019-03-16T11:43:01.675Z,52.20
2019-03-16T11:45:34.206Z,53.65
2019-03-16T11:48:06.766Z,58.48
2019-03-16T11:50:39.370Z,63.35
2019-03-16T11:53:12.247Z,56.85
2019-03-16T11:55:44.650Z,57.95
2019-03-16T11:58:17.247Z,61.18
2019-03-16T12:00:50.006Z,62.55
2019-03-16T12:03:22.470Z,129.47
2019-03-16T12:05:54.911Z,79.55
2019-03-16T12:08:27.425Z,80.00
2019-03-16T12:11:02.239Z,75.57
2019-03-16T12:13:34.686Z,74.22
2019-03-16T12:16:07.159Z,64.40
2019-03-16T12:18:39.352Z,67.85
2019-03-16T12:21:12.201Z,58.63
2019-03-16T12:23:44.405Z,62.30
2019-03-16T12:26:16.930Z,59.58
2019-03-16T12:28:50.168Z,67.27
2019-03-16T12:31:22.718Z,58.83
2019-03-16T12:33:56.595Z,67.30
2019-03-16T12:36:29.452Z,59.88
2019-03-16T12:39:01.932Z,63.75
2019-03-16T12:41:34.653Z,57.85
2019-03-16T12:44:07.338Z,64.65
2019-03-16T12:46:40.187Z,61.83
2019-03-16T12:49:12.595Z,64.97
2019-03-16T12:51:45.070Z,67.47
2019-03-16T12:54:17.971Z,58.65
2019-03-16T12:56:50.855Z,67.80
2019-03-16T12:59:24.330Z,61.98
2019-03-16T13:01:57.068Z,62.70
2019-03-16T13:04:29.982Z,62.05
2019-03-16T13:07:02.351Z,60.63
2019-03-16T13:09:34.642Z,69.72
2019-03-16T13:12:07.142Z,63.23
2019-03-16T13:14:39.546Z,65.10
2019-03-16T13:17:12.092Z,70.45
2019-03-16T13:19:44.351Z,81.78
2019-03-16T13:22:17.151Z,72.35
2019-03-16T13:24:49.745Z,69.65
2019-03-16T13:27:21.953Z,75.70
2019-03-16T13:29:59.056Z,75.75
2019-03-16T13:32:47.096Z,75.60
2019-03-16T13:35:20.866Z,71.75
2019-03-16T13:37:53.377Z,79.45
2019-03-16T13:40:26.242Z,75.52
2019-03-16T13:42:58.917Z,69.97
2019-03-16T13:45:31.610Z,69.95
2019-03-16T13:48:04.103Z,63.80
2019-03-16T13:50:36.739Z,64.55
2019-03-16T13:53:09.191Z,68.45
2019-03-16T13:55:41.760Z,67.17
2019-03-16T13:58:15.229Z,71.33
2019-03-16T14:00:47.804Z,64.77
2019-03-16T14:03:20.304Z,66.72
2019-03-16T14:05:52.904Z,71.47
2019-03-16T14:08:25.199Z,73.20
2019-03-16T14:10:58.025Z,71.97
2019-03-16T14:13:30.636Z,69.62
2019-03-16T14:16:02.900Z,76.33
2019-03-16T14:18:35.202Z,90.42
2019-03-16T14:21:08.291Z,87.12
2019-03-16T14:23:40.414Z,95.15
2019-03-16T14:26:13.066Z,194.50
2019-03-16T14:28:45.162Z,86.85
2019-03-16T14:31:19.138Z,102.75
2019-03-16T14:33:51.724Z,139.85
2019-03-16T14:36:24.041Z,122.78
2019-03-16T14:38:56.438Z,113.75
2019-03-16T14:41:29.692Z,166.43
2019-03-16T14:44:02.491Z,164.00
2019-03-16T14:46:35.396Z,112.10
2019-03-16T14:49:08.035Z,91.85
2019-03-16T14:51:40.450Z,90.77
2019-03-16T14:54:12.909Z,84.45
2019-03-16T14:56:45.569Z,81.05
2019-03-16T14:59:18.169Z,86.82
2019-03-16T15:01:50.685Z,88.60
2019-03-16T15:04:23.742Z,86.20
2019-03-16T15:06:56.257Z,87.42
2019-03-16T15:09:28.964Z,87.42
2019-03-16T15:12:01.607Z,80.32
2019-03-16T15:14:34.209Z,74.85
2019-03-16T15:17:06.738Z,89.00
2019-03-16T15:19:38.861Z,109.50
2019-03-16T15:22:12.270Z,170.50
2019-03-16T15:24:44.652Z,79.72
2019-03-16T15:27:17.237Z,72.85
2019-03-16T15:29:49.699Z,79.35
2019-03-16T15:32:34.100Z,80.45
2019-03-16T15:35:08.109Z,82.60
2019-03-16T15:37:40.444Z,82.57
2019-03-16T15:40:15.603Z,81.28
2019-03-16T15:42:50.280Z,79.53
2019-03-16T15:45:24.545Z,74.50
2019-03-16T15:47:57.331Z,80.60
2019-03-16T15:50:29.641Z,74.07
2019-03-16T15:53:02.174Z,81.47
2019-03-16T15:55:34.374Z,77.22
2019-03-16T15:58:08.600Z,80.30
2019-03-16T16:00:41.032Z,80.15
2019-03-16T16:03:13.418Z,80.05
2019-03-16T16:05:46.010Z,83.03
2019-03-16T16:08:19.388Z,81.05
2019-03-16T16:11:00.858Z,99.03
2019-03-16T16:13:26.546Z,84.65
2019-03-16T16:15:59.062Z,86.57
2019-03-16T16:18:31.769Z,81.22
2019-03-16T16:21:04.247Z,81.40
2019-03-16T16:23:36.487Z,78.95
2019-03-16T16:26:09.024Z,84.22
2019-03-16T16:28:41.343Z,79.37
2019-03-16T16:31:16.613Z,80.20
2019-03-16T16:33:47.869Z,83.58
2019-03-16T16:36:21.069Z,84.28
2019-03-16T16:38:53.671Z,81.05
2019-03-16T16:41:26.412Z,88.55
2019-03-16T16:43:58.923Z,81.50
2019-03-16T16:46:31.592Z,78.02
2019-03-16T16:49:03.991Z,85.28
2019-03-16T16:51:36.597Z,79.07
2019-03-16T16:54:09.152Z,78.30
2019-03-16T16:56:41.835Z,83.60
2019-03-16T16:59:14.400Z,84.45
2019-03-16T17:01:47.302Z,83.15
2019-03-16T17:04:20.983Z,82.57
2019-03-16T17:06:53.604Z,345.95
2019-03-16T17:09:26.013Z,84.97
2019-03-16T17:11:59.222Z,79.07
2019-03-16T17:14:31.818Z,79.25
2019-03-16T17:17:04.645Z,81.63
2019-03-16T17:19:37.080Z,79.87
2019-03-16T17:22:10.073Z,84.97
2019-03-16T17:24:42.618Z,90.77
2019-03-16T17:27:15.083Z,88.17
2019-03-16T17:29:47.487Z,89.25
2019-03-16T17:32:19.923Z,84.25
2019-03-16T17:34:52.258Z,93.45
2019-03-16T17:37:25.044Z,90.67
2019-03-16T17:39:58.858Z,91.32
2019-03-16T17:42:31.357Z,82.53
2019-03-16T17:45:03.761Z,90.57
2019-03-16T17:47:36.213Z,88.30
2019-03-16T17:50:10.954Z,87.55
2019-03-16T17:52:43.821Z,87.22
2019-03-16T17:55:17.104Z,88.15
2019-03-16T17:57:49.706Z,81.15
2019-03-16T18:00:22.756Z,84.28
2019-03-16T18:02:55.362Z,91.32
2019-03-16T18:05:27.982Z,84.28
2019-03-16T18:08:00.776Z,87.47
2019-03-16T18:10:33.299Z,83.30
2019-03-16T18:13:05.941Z,87.35
2019-03-16T18:15:39.725Z,94.52
2019-03-16T18:18:12.335Z,89.95
2019-03-16T18:20:44.697Z,93.22
2019-03-16T18:23:17.406Z,89.37
2019-03-16T18:25:49.887Z,87.20
2019-03-16T18:28:22.659Z,92.05
2019-03-16T18:30:55.088Z,86.37
2019-03-16T18:33:27.753Z,87.50
2019-03-16T18:36:00.369Z,88.80
2019-03-16T18:38:33.121Z,91.05
2019-03-16T18:41:07.129Z,89.37
2019-03-16T18:43:40.735Z,91.90
2019-03-16T18:46:13.590Z,97.20
2019-03-16T18:48:46.225Z,97.45
2019-03-16T18:51:18.957Z,101.38
2019-03-16T18:53:51.993Z,98.42
2019-03-16T18:56:24.603Z,105.92
2019-03-16T18:58:57.193Z,99.80
2019-03-16T19:01:29.620Z,101.00
2019-03-16T19:04:21.146Z,103.70
2019-03-16T19:07:05.813Z,104.07
2019-03-16T19:09:38.385Z,102.95
2019-03-16T19:12:11.084Z,105.95
2019-03-16T19:14:43.497Z,111.68
2019-03-16T19:17:16.331Z,102.42
2019-03-16T19:19:49.126Z,106.70
2019-03-16T19:22:21.672Z,107.17
2019-03-16T19:24:54.451Z,109.12
2019-03-16T19:27:27.161Z,103.87
2019-03-16T19:29:59.686Z,105.60
2019-03-16T19:32:33.959Z,104.92
2019-03-16T19:35:07.108Z,102.17
2019-03-16T19:37:39.630Z,102.55
2019-03-16T19:40:14.776Z,108.55
2019-03-16T19:42:47.409Z,108.83
2019-03-16T19:45:20.648Z,109.92
2019-03-16T19:47:52.974Z,103.12
2019-03-16T19:50:25.936Z,105.17
2019-03-16T19:52:58.437Z,112.35
2019-03-16T19:55:31.056Z,103.10
2019-03-16T19:58:03.589Z,111.92
2019-03-16T20:00:36.022Z,105.63
2019-03-16T20:03:08.471Z,108.42
2019-03-16T20:05:40.965Z,107.75
2019-03-16T20:08:13.527Z,105.67
2019-03-16T20:10:46.136Z,110.60
2019-03-16T20:13:18.705Z,104.65
2019-03-16T20:15:51.552Z,112.12
2019-03-16T20:18:23.887Z,110.25
2019-03-16T20:20:56.449Z,114.65
2019-03-16T20:23:28.905Z,111.30
2019-03-16T20:26:01.814Z,119.35
2019-03-16T20:28:34.258Z,119.25
2019-03-16T20:31:06.921Z,118.30
2019-03-16T20:33:40.050Z,117.25
2019-03-16T20:36:12.499Z,114.77
2019-03-16T20:38:45.045Z,115.22
2019-03-16T20:41:17.725Z,120.70
2019-03-16T20:43:50.268Z,116.45
2019-03-16T20:46:22.993Z,112.37
2019-03-16T20:48:55.611Z,114.55
2019-03-16T20:51:28.303Z,102.80
2019-03-16T20:54:00.605Z,108.52
2019-03-16T20:56:33.381Z,104.95
2019-03-16T20:59:05.791Z,104.83
2019-03-16T21:01:38.174Z,104.53
2019-03-16T21:04:10.879Z,100.70
2019-03-16T21:06:43.213Z,94.70
2019-03-16T21:09:15.724Z,94.90
2019-03-16T21:11:49.528Z,99.87
2019-03-16T21:14:22.236Z,103.85
2019-03-16T21:16:54.940Z,94.17
2019-03-16T21:19:27.343Z,95.57
2019-03-16T21:21:59.889Z,94.10
2019-03-16T21:24:32.884Z,95.77
2019-03-16T21:27:05.564Z,94.20
2019-03-16T21:29:37.840Z,93.17
2019-03-16T21:32:10.788Z,89.30
2019-03-16T21:34:43.062Z,85.70
2019-03-16T21:37:15.668Z,87.65
2019-03-16T21:39:48.172Z,96.17
2019-03-16T21:42:20.853Z,85.40
2019-03-16T21:44:53.167Z,88.37
2019-03-16T21:47:25.902Z,95.00
2019-03-16T21:49:58.483Z,88.92
2019-03-16T21:52:31.072Z,87.20
2019-03-16T21:55:04.776Z,85.85
2019-03-16T21:57:37.611Z,88.45
2019-03-16T22:00:12.213Z,96.50
2019-03-16T22:02:45.123Z,109.90
2019-03-16T22:05:17.617Z,98.92
2019-03-16T22:07:50.454Z,96.72
2019-03-16T22:10:23.045Z,91.08
2019-03-16T22:12:56.037Z,87.62
2019-03-16T22:15:28.664Z,90.32
2019-03-16T22:18:01.329Z,85.28
2019-03-16T22:20:46.161Z,89.13
2019-03-16T22:23:18.898Z,89.05
2019-03-16T22:25:51.661Z,83.92
2019-03-16T22:28:24.373Z,85.40
2019-03-16T22:30:57.239Z,82.30
2019-03-16T22:33:29.659Z,80.57
2019-03-16T22:36:02.062Z,83.92
2019-03-16T22:38:34.728Z,85.62
2019-03-16T22:41:07.335Z,81.60
2019-03-16T22:43:40.051Z,86.28
2019-03-16T22:46:12.359Z,82.40
2019-03-16T22:48:45.637Z,87.62
2019-03-16T22:51:17.993Z,82.22
2019-03-16T22:53:50.722Z,82.12
2019-03-16T22:56:23.120Z,81.47
2019-03-16T22:58:55.889Z,83.47
2019-03-16T23:01:28.570Z,77.22
2019-03-16T23:04:06.759Z,84.05
2019-03-16T23:06:34.694Z,77.58
2019-03-16T23:09:08.666Z,85.70
2019-03-16T23:11:41.258Z,77.55
2019-03-16T23:14:13.987Z,78.17
2019-03-16T23:16:46.514Z,78.02
2019-03-16T23:19:19.128Z,81.05
2019-03-16T23:21:52.049Z,80.38
2019-03-16T23:24:24.550Z,82.17
2019-03-16T23:26:57.571Z,77.47
2019-03-16T23:29:30.928Z,76.53
2019-03-16T23:32:03.376Z,76.90
2019-03-16T23:34:36.241Z,77.12
2019-03-16T23:37:08.759Z,74.92
2019-03-16T23:39:41.368Z,75.70
2019-03-16T23:42:14.284Z,75.00
2019-03-16T23:44:46.868Z,72.25
2019-03-16T23:47:19.398Z,78.22
2019-03-16T23:49:51.757Z,74.95
2019-03-16T23:52:24.138Z,79.25
2019-03-16T23:54:56.732Z,77.85
2019-03-16T23:57:29.247Z,75.35
